Route Details

Aircraft Information
Group: European Fleet
Types: A30F, A31F, B738
Route Data
Distance: 676nm
Duration: 1h 44m
Origin METAR: LDDU 160000Z 09008KT 060V140 CAVOK 21/16 Q1011
Dest. METAR: EDDK 152350Z AUTO 13004KT CAVOK 19/15 Q1007 NOSIG
Freight Data
(for Aug 16, 2022)
Load Factor:
98%
Manifested Cargo: 91,823lbs
Financial History
Total Freight: 22,891lbs
Average Load: 0lbs/flt
Fuel Used: 6,826lbs
Avg. Fuel Used: 0lbs/flt
Fuel Expense: $3,686
Avg. Fuel Expense: $0
Avg. Fuel Cost: $0/lbs
Total Gross Income: $105,070
Pilot Pay: $269
Total Expenses: $22,803
Total Revenue: $77,902
Average Revenue: $0

Capitol Logistics 540




LDDU
Dubrovnik Airport
Dubrovnik, HR
EDDK
Cologne Bonn Airport
Cologne, DE